Time;durP1;ratioP1;P1;durP2;ratioP2;P2;SDS_P1;SDS_P2;PMS_P1;PMS_P2;Temp;Humidity;BMP_temperature;BMP_pressure;BME280_temperature;BME280_humidity;BME280_pressure;Samples;Min_cycle;Max_cycle;Signal;HPM_P1;HPM_P2
2022/10/14 00:02:12;;;;;;;1.42;1.25;;;;;;;18.26;64.80;101912.59;5047346;28;20092;-80
2022/10/14 00:04:37;;;;;;;1.02;0.90;;;;;;;18.24;64.82;101906.31;5043058;28;20067;-79
2022/10/14 00:07:03;;;;;;;1.20;1.05;;;;;;;18.25;64.97;101907.25;5059241;28;20025;-79
2022/10/14 00:09:28;;;;;;;0.85;0.70;;;;;;;18.33;64.65;101918.13;5045238;28;20037;-79
2022/10/14 00:11:54;;;;;;;0.90;0.90;;;;;;;18.36;64.82;101908.59;5057479;28;20022;-79
2022/10/14 00:14:20;;;;;;;1.98;1.10;;;;;;;18.27;65.06;101903.84;5035454;28;20579;-79
2022/10/14 00:16:47;;;;;;;1.23;1.00;;;;;;;18.10;65.26;101883.75;5059680;28;20040;-81
2022/10/14 00:19:14;;;;;;;1.10;1.00;;;;;;;18.26;65.11;101894.06;5053653;28;20132;-79
2022/10/14 00:21:42;;;;;;;0.80;0.80;;;;;;;18.30;64.93;101898.66;5057326;28;20036;-79
2022/10/14 00:24:09;;;;;;;1.10;1.00;;;;;;;18.36;64.49;101876.84;5054159;28;20029;-79
2022/10/14 00:26:37;;;;;;;1.10;1.00;;;;;;;18.27;64.85;101889.72;5057432;28;20103;-80
2022/10/14 00:29:08;;;;;;;0.90;0.90;;;;;;;18.28;64.95;101886.22;5054362;28;20107;-80
2022/10/14 00:31:34;;;;;;;0.90;0.90;;;;;;;18.27;64.77;101873.84;5043920;28;20025;-79
2022/10/14 00:34:00;;;;;;;1.10;1.00;;;;;;;18.23;64.93;101880.75;5052182;28;20115;-79
2022/10/14 00:36:26;;;;;;;1.15;0.80;;;;;;;18.22;65.05;101878.03;5041576;28;20392;-79
2022/10/14 00:38:53;;;;;;;1.38;1.00;;;;;;;18.24;64.64;101886.94;5040747;28;20471;-79
2022/10/14 00:41:23;;;;;;;1.00;0.98;;;;;;;18.23;64.92;101875.47;5049690;28;20021;-79
2022/10/14 00:44:00;;;;;;;1.10;1.00;;;;;;;18.28;64.30;101865.06;5040140;28;20017;-79
2022/10/14 00:46:29;;;;;;;1.08;0.98;;;;;;;18.18;64.84;101853.22;5043048;28;20029;-79
2022/10/14 00:48:56;;;;;;;1.20;0.90;;;;;;;18.21;65.04;101863.03;5044766;28;20025;-79
2022/10/14 00:51:22;;;;;;;0.88;0.80;;;;;;;18.35;64.74;101858.28;5059154;28;20073;-79
2022/10/14 00:53:47;;;;;;;0.90;0.80;;;;;;;18.28;64.79;101857.13;5051540;28;20111;-79
2022/10/14 00:56:15;;;;;;;0.70;0.70;;;;;;;18.21;64.68;101853.34;5053814;28;20071;-79
2022/10/14 00:58:40;;;;;;;0.80;0.80;;;;;;;18.18;65.01;101844.38;5043566;28;20033;-79
2022/10/14 01:01:06;;;;;;;0.98;0.90;;;;;;;18.17;64.92;101842.59;5038298;28;20043;-79
2022/10/14 01:03:33;;;;;;;1.13;1.02;;;;;;;18.19;64.67;101847.09;5066613;28;20567;-79
2022/10/14 01:06:17;;;;;;;1.17;1.05;;;;;;;18.18;64.99;101861.16;5058371;28;20080;-79
2022/10/14 01:08:44;;;;;;;1.75;1.05;;;;;;;18.19;65.01;101855.03;5051953;28;20136;-80
2022/10/14 01:11:19;;;;;;;0.85;0.85;;;;;;;18.13;64.89;101853.88;5049824;28;20029;-79
2022/10/14 01:13:59;;;;;;;0.88;0.70;;;;;;;18.20;64.83;101847.97;5040145;28;20041;-79
2022/10/14 01:16:34;;;;;;;0.80;0.80;;;;;;;18.00;65.06;101832.22;5057366;28;20105;-79
2022/10/14 01:19:03;;;;;;;1.10;1.00;;;;;;;18.11;64.94;101859.97;5054606;28;20024;-79
2022/10/14 01:21:47;;;;;;;1.15;0.90;;;;;;;18.13;64.70;101857.41;5048009;28;20026;-79
2022/10/14 01:24:48;;;;;;;1.20;0.93;;;;;;;18.15;64.82;101862.78;5054449;28;20033;-80
2022/10/14 01:27:22;;;;;;;0.82;0.77;;;;;;;18.16;64.55;101859.28;5015251;28;20514;-80
2022/10/14 01:30:14;;;;;;;1.17;0.90;;;;;;;18.12;64.66;101855.63;5053799;28;20040;-79
2022/10/14 01:33:13;;;;;;;0.77;0.77;;;;;;;18.11;64.83;101849.41;5052253;28;20021;-79
2022/10/14 01:36:02;;;;;;;0.70;0.70;;;;;;;18.10;64.86;101846.72;5048268;28;20047;-79
2022/10/14 01:38:34;;;;;;;1.02;0.70;;;;;;;18.18;64.74;101837.38;5044568;28;20045;-80
2022/10/14 01:41:05;;;;;;;1.45;0.85;;;;;;;18.17;64.82;101834.66;5043723;28;20029;-80
2022/10/14 01:43:31;;;;;;;2.33;1.00;;;;;;;18.10;64.85;101831.75;5050879;28;20418;-80
2022/10/14 01:45:56;;;;;;;;;;;;;;;18.11;64.70;101838.84;5044770;28;20061;-80
2022/10/14 01:48:27;;;;;;;1.15;1.00;;;;;;;18.07;64.57;101838.66;5046588;28;19937;-80
2022/10/14 01:50:54;;;;;;;0.90;0.90;;;;;;;18.08;64.76;101821.97;5031167;28;20033;-80
2022/10/14 01:53:24;;;;;;;1.38;0.98;;;;;;;18.11;64.36;101830.00;5051326;28;20024;-80
2022/10/14 01:55:52;;;;;;;0.75;0.70;;;;;;;18.01;64.29;101804.03;5049587;28;20046;-80
2022/10/14 01:58:22;;;;;;;0.93;0.80;;;;;;;18.03;64.39;101813.88;5047095;28;20025;-80
2022/10/14 02:00:48;;;;;;;1.65;0.90;;;;;;;18.14;64.34;101830.16;5054342;28;20024;-80
2022/10/14 02:03:14;;;;;;;0.88;0.63;;;;;;;18.08;64.41;101822.88;5042199;28;20033;-80
2022/10/14 02:05:44;;;;;;;0.90;0.90;;;;;;;18.11;64.41;101828.25;5049260;28;20036;-80
2022/10/14 02:08:16;;;;;;;1.00;0.90;;;;;;;18.07;64.63;101821.03;5037924;28;20044;-80
2022/10/14 02:11:03;;;;;;;0.95;0.85;;;;;;;18.13;64.39;101830.09;5049264;28;20079;-80
2022/10/14 02:13:29;;;;;;;0.70;0.70;;;;;;;18.09;64.56;101824.66;5041558;28;20556;-80
2022/10/14 02:16:09;;;;;;;0.90;0.80;;;;;;;18.11;64.64;101828.25;5042944;28;20032;-80
2022/10/14 02:18:50;;;;;;;1.38;0.90;;;;;;;18.10;64.52;101823.84;5053167;28;20037;-80
2022/10/14 02:21:23;;;;;;;0.90;0.90;;;;;;;18.15;64.43;101825.75;5050202;28;20108;-80
2022/10/14 02:24:09;;;;;;;0.90;0.90;;;;;;;18.02;64.71;101821.72;5058845;28;20036;-80
2022/10/14 02:26:36;;;;;;;0.70;0.70;;;;;;;17.97;64.40;101812.69;5068398;28;20028;-80
2022/10/14 02:29:02;;;;;;;0.88;0.88;;;;;;;18.08;64.39;101828.16;5034478;28;20030;-80
2022/10/14 02:31:29;;;;;;;0.73;0.70;;;;;;;18.04;64.63;101823.59;5044726;28;21139;-80
2022/10/14 02:33:58;;;;;;;0.60;0.60;;;;;;;18.07;64.26;101817.50;5042960;28;20043;-80
2022/10/14 02:36:25;;;;;;;0.98;0.90;;;;;;;18.05;64.55;101821.84;5044734;28;20036;-79
2022/10/14 02:38:52;;;;;;;1.33;0.75;;;;;;;18.03;64.22;101810.28;5035369;28;20091;-80
2022/10/14 02:41:20;;;;;;;0.98;0.82;;;;;;;18.02;64.60;101812.03;5053176;28;20040;-79
2022/10/14 02:43:45;;;;;;;1.15;0.90;;;;;;;18.05;64.51;101822.72;5049948;28;20048;-80
2022/10/14 02:46:11;;;;;;;0.90;0.70;;;;;;;18.00;64.92;101821.66;5039881;28;20534;-79
2022/10/14 02:48:37;;;;;;;1.27;0.80;;;;;;;18.02;64.60;101817.31;5032066;28;20057;-80
2022/10/14 02:51:02;;;;;;;1.15;0.80;;;;;;;17.96;64.48;101797.69;5051368;28;20028;-79
2022/10/14 02:53:29;;;;;;;0.90;0.80;;;;;;;18.03;64.49;101813.88;5037970;28;20026;-80
2022/10/14 02:55:55;;;;;;;1.00;0.90;;;;;;;17.86;64.63;101793.75;5033387;28;20505;-80
2022/10/14 02:58:21;;;;;;;1.00;0.90;;;;;;;18.01;64.48;101815.53;5048938;28;20107;-80
2022/10/14 03:00:49;;;;;;;0.93;0.85;;;;;;;17.98;64.44;101801.28;5052436;28;20124;-80
2022/10/14 03:03:15;;;;;;;0.90;0.80;;;;;;;17.97;64.58;101804.75;5051279;28;20091;-79
2022/10/14 03:05:41;;;;;;;1.70;1.00;;;;;;;17.97;64.58;101789.81;5041215;28;20501;-79
2022/10/14 03:08:07;;;;;;;0.90;0.90;;;;;;;18.00;64.52;101797.88;5047183;28;20045;-80
2022/10/14 03:10:32;;;;;;;0.93;0.82;;;;;;;17.92;64.69;101791.38;5042212;28;20539;-79
2022/10/14 03:12:58;;;;;;;0.98;0.85;;;;;;;17.92;64.60;101786.06;5056822;28;20051;-80
2022/10/14 03:15:24;;;;;;;0.68;0.68;;;;;;;17.97;64.42;101789.81;5041537;28;20085;-80
2022/10/14 03:17:49;;;;;;;1.10;1.00;;;;;;;17.90;64.60;101786.00;5061652;28;20037;-80
2022/10/14 03:20:15;;;;;;;0.93;0.75;;;;;;;17.89;64.39;101781.56;5054627;28;20509;-80
2022/10/14 03:22:41;;;;;;;2.05;1.00;;;;;;;17.96;64.49;101784.47;5052846;28;20036;-80
2022/10/14 03:25:07;;;;;;;1.40;0.88;;;;;;;17.89;64.61;101775.41;5058883;28;20032;-80
2022/10/14 03:27:33;;;;;;;0.85;0.80;;;;;;;17.86;64.67;101777.91;5059143;28;20050;-80
2022/10/14 03:29:58;;;;;;;1.83;0.80;;;;;;;17.96;64.34;101782.72;5058916;28;20508;-80
2022/10/14 03:32:24;;;;;;;1.20;0.90;;;;;;;17.96;64.25;101777.44;5050375;28;20406;-80
2022/10/14 03:34:49;;;;;;;0.80;0.80;;;;;;;17.96;64.42;101780.06;5039101;28;20028;-80
2022/10/14 03:37:15;;;;;;;1.17;0.70;;;;;;;17.92;64.47;101764.03;5043893;28;20045;-79
2022/10/14 03:39:40;;;;;;;0.80;0.80;;;;;;;17.93;64.46;101771.13;5045591;28;20036;-80
2022/10/14 03:42:06;;;;;;;1.20;0.80;;;;;;;17.94;64.23;101776.47;5054326;28;20094;-79
2022/10/14 03:44:32;;;;;;;0.82;0.70;;;;;;;17.92;64.10;101774.63;5048894;28;20037;-80
2022/10/14 03:46:57;;;;;;;1.10;1.00;;;;;;;17.91;64.23;101779.00;5048631;28;20486;-80
2022/10/14 03:49:23;;;;;;;1.08;0.82;;;;;;;17.86;64.26;101770.91;5046015;28;20037;-80
2022/10/14 03:51:49;;;;;;;1.33;0.70;;;;;;;17.85;64.23;101774.38;5050722;28;20021;-80
2022/10/14 03:54:14;;;;;;;1.00;0.90;;;;;;;17.92;64.04;101771.97;5055468;28;20035;-80
2022/10/14 03:56:40;;;;;;;1.63;1.05;;;;;;;17.78;64.27;101756.44;5048416;28;20034;-79
2022/10/14 03:59:05;;;;;;;1.23;0.98;;;;;;;17.87;64.22;101769.16;5050477;28;20060;-80
2022/10/14 04:01:31;;;;;;;1.45;0.88;;;;;;;17.85;63.99;101760.25;5034784;28;20025;-79
2022/10/14 04:03:57;;;;;;;1.52;1.05;;;;;;;17.85;64.43;101771.72;5041115;28;20029;-80
2022/10/14 04:06:22;;;;;;;1.20;1.10;;;;;;;17.84;64.42;101769.94;5052557;28;20107;-80
2022/10/14 04:08:48;;;;;;;0.77;0.75;;;;;;;17.84;64.51;101767.28;5041598;28;20061;-79
2022/10/14 04:11:13;;;;;;;0.90;0.80;;;;;;;17.82;64.51;101765.38;5043613;28;20063;-79
2022/10/14 04:13:39;;;;;;;1.30;1.20;;;;;;;17.81;64.38;101766.22;5058431;28;20036;-79
2022/10/14 04:16:06;;;;;;;1.20;0.98;;;;;;;17.82;64.31;101765.38;5049435;28;20430;-80
2022/10/14 04:18:34;;;;;;;1.73;0.93;;;;;;;17.78;64.46;101753.78;5051129;28;20052;-80
2022/10/14 04:21:05;;;;;;;1.48;1.00;;;;;;;17.81;64.10;101764.47;5052971;28;20032;-80
2022/10/14 04:23:32;;;;;;;2.55;1.20;;;;;;;17.77;64.42;101772.22;5058948;28;20036;-79
2022/10/14 04:25:57;;;;;;;;;;;;;;;17.79;64.33;101763.50;5053035;28;20026;-80
2022/10/14 04:28:23;;;;;;;2.30;1.00;;;;;;;17.77;64.51;101754.63;5048975;28;20101;-80
2022/10/14 04:30:49;;;;;;;1.35;1.25;;;;;;;17.81;64.22;101764.47;5040332;28;20028;-80
2022/10/14 04:33:14;;;;;;;1.50;1.10;;;;;;;17.79;64.21;101759.97;5037667;28;20119;-79
2022/10/14 04:35:42;;;;;;;1.05;0.80;;;;;;;17.72;64.25;101747.38;5051832;28;20033;-80
2022/10/14 04:38:07;;;;;;;1.20;1.10;;;;;;;17.72;64.68;101757.94;5051570;28;20060;-80
2022/10/14 04:40:33;;;;;;;1.33;1.17;;;;;;;17.76;64.31;101762.47;5049302;28;20029;-80
2022/10/14 04:42:58;;;;;;;0.90;0.90;;;;;;;17.75;64.33;101758.94;5035452;28;20026;-80
2022/10/14 04:45:24;;;;;;;1.05;0.95;;;;;;;17.70;64.63;101757.88;5047634;28;20099;-80
2022/10/14 04:47:50;;;;;;;1.45;1.20;;;;;;;17.74;64.42;101757.16;5051697;28;20063;-80
2022/10/14 04:50:17;;;;;;;1.77;1.30;;;;;;;17.78;64.16;101758.16;5045319;28;20391;-80
2022/10/14 04:52:43;;;;;;;1.58;1.05;;;;;;;17.81;64.03;101755.66;5055738;28;20025;-80
2022/10/14 04:55:08;;;;;;;1.73;1.10;;;;;;;17.73;64.50;101762.38;5056866;28;20032;-80
2022/10/14 04:57:34;;;;;;;1.75;1.10;;;;;;;17.68;64.45;101763.06;5056060;28;20477;-80
2022/10/14 05:00:01;;;;;;;2.67;1.27;;;;;;;17.73;64.54;101768.53;5052898;28;20028;-81
2022/10/14 05:02:26;;;;;;;1.83;1.20;;;;;;;17.50;64.21;101720.97;5045369;28;20033;-86
2022/10/14 05:04:52;;;;;;;1.55;1.08;;;;;;;17.72;64.33;101768.50;5050677;28;20565;-84
2022/10/14 05:07:17;;;;;;;1.52;1.25;;;;;;;17.64;64.48;101769.06;5049578;28;20033;-82
2022/10/14 05:09:43;;;;;;;1.35;1.20;;;;;;;17.68;64.59;101762.19;5033250;28;20486;-82
2022/10/14 05:12:09;;;;;;;1.38;1.27;;;;;;;17.72;64.37;101766.75;5043769;28;20036;-82
2022/10/14 05:14:35;;;;;;;1.77;1.10;;;;;;;17.67;64.36;101768.28;5044646;28;20032;-82
2022/10/14 05:17:00;;;;;;;1.75;1.38;;;;;;;17.55;64.76;101751.97;5051114;28;20028;-82
2022/10/14 05:19:26;;;;;;;1.38;1.27;;;;;;;17.71;64.33;101759.66;5051088;28;20041;-83
2022/10/14 05:21:52;;;;;;;1.65;1.45;;;;;;;17.59;64.72;101757.44;5045638;28;20024;-82
2022/10/14 05:24:17;;;;;;;2.72;1.33;;;;;;;17.66;64.40;101753.28;5048344;28;20033;-85
2022/10/14 05:26:43;;;;;;;1.88;1.10;;;;;;;17.53;64.30;101738.69;5044970;28;20029;-82
2022/10/14 05:29:11;;;;;;;2.10;1.33;;;;;;;17.62;64.41;101768.09;5036170;28;20041;-82
2022/10/14 05:31:37;;;;;;;1.77;1.33;;;;;;;17.58;64.54;101760.88;5036914;28;20017;-82
2022/10/14 05:34:03;;;;;;;1.88;1.38;;;;;;;17.66;64.52;101756.81;5034226;28;20461;-83
2022/10/14 05:36:29;;;;;;;1.83;1.63;;;;;;;17.56;64.45;101753.75;5031764;28;20036;-83
2022/10/14 05:38:57;;;;;;;2.78;1.75;;;;;;;17.41;64.50;101727.59;5038941;28;20422;-86
2022/10/14 05:41:24;;;;;;;2.22;1.20;;;;;;;17.67;64.58;101769.22;5045711;28;20057;-83
2022/10/14 05:43:50;;;;;;;1.88;1.63;;;;;;;17.59;64.35;101753.84;5031423;28;20025;-84
2022/10/14 05:46:16;;;;;;;2.25;1.60;;;;;;;17.61;64.73;101761.03;5036637;28;20084;-85
2022/10/14 05:48:41;;;;;;;2.47;1.40;;;;;;;17.63;64.69;101758.44;5046191;28;20398;-83
2022/10/14 05:51:07;;;;;;;1.90;1.58;;;;;;;17.60;64.42;101745.13;5033477;28;20503;-82
2022/10/14 05:53:33;;;;;;;2.40;1.58;;;;;;;17.60;64.36;101745.13;5040283;28;20021;-82
2022/10/14 05:56:06;;;;;;;1.63;1.25;;;;;;;17.64;64.72;101762.91;5040678;28;20023;-82
2022/10/14 05:58:32;;;;;;;1.70;1.60;;;;;;;17.66;64.41;101761.22;5043151;28;20041;-81
2022/10/14 06:01:00;;;;;;;3.00;1.90;;;;;;;17.67;64.54;101766.56;5044488;28;20465;-81
2022/10/14 06:03:26;;;;;;;1.95;1.75;;;;;;;17.65;64.40;101762.03;5044485;28;20021;-81
2022/10/14 06:05:52;;;;;;;2.50;1.60;;;;;;;17.63;64.56;101769.94;5050756;28;20024;-81
2022/10/14 06:08:17;;;;;;;4.03;1.77;;;;;;;17.65;64.34;101776.19;5040827;28;20415;-81
2022/10/14 06:10:43;;;;;;;2.13;1.35;;;;;;;17.61;64.63;101776.88;5053028;28;20032;-82
2022/10/14 06:13:09;;;;;;;1.75;1.55;;;;;;;17.65;64.43;101775.25;5051246;28;20031;-81
2022/10/14 06:15:35;;;;;;;2.50;1.60;;;;;;;17.53;64.50;101754.53;5051056;28;20048;-82
2022/10/14 06:18:00;;;;;;;;;;;;;;;17.70;64.31;101779.00;5052445;28;20179;-82
2022/10/14 06:20:26;;;;;;;2.95;2.17;;;;;;;17.61;64.39;101768.97;5050688;28;19955;-82
2022/10/14 06:22:52;;;;;;;4.75;2.15;;;;;;;17.59;64.38;101761.78;5050618;28;20644;-81
2022/10/14 06:25:17;;;;;;;4.22;2.20;;;;;;;17.69;64.33;101764.91;5049162;28;20044;-83
2022/10/14 06:27:43;;;;;;;2.85;2.17;;;;;;;17.66;64.46;101759.47;5039712;28;20463;-83
2022/10/14 06:30:09;;;;;;;3.28;2.08;;;;;;;17.68;64.69;101763.06;5053121;28;20421;-83
2022/10/14 06:32:35;;;;;;;5.30;2.47;;;;;;;17.61;64.75;101758.41;5046076;28;20025;-81
2022/10/14 06:35:00;;;;;;;5.35;3.65;;;;;;;17.67;64.67;101761.28;5044341;28;20033;-81
2022/10/14 06:37:26;;;;;;;3.35;2.63;;;;;;;17.64;65.00;101758.50;5055574;28;20049;-81
2022/10/14 06:39:52;;;;;;;3.95;2.70;;;;;;;17.57;64.91;101737.03;5043685;28;20559;-81
2022/10/14 06:42:17;;;;;;;5.90;3.80;;;;;;;17.70;64.89;101749.94;5034212;28;20477;-80
2022/10/14 06:44:43;;;;;;;3.22;2.30;;;;;;;17.63;65.26;101751.44;5036752;28;20065;-81
2022/10/14 06:47:08;;;;;;;8.00;4.20;;;;;;;17.63;65.15;101748.78;5045013;28;20025;-80
2022/10/14 06:49:34;;;;;;;3.63;3.22;;;;;;;17.65;65.13;101747.13;5038328;28;20028;-81
2022/10/14 06:51:59;;;;;;;6.68;3.70;;;;;;;17.65;65.13;101747.13;5050238;28;20466;-81
2022/10/14 06:54:25;;;;;;;6.68;3.67;;;;;;;17.69;65.12;101745.47;5056075;28;20498;-81
2022/10/14 06:56:50;;;;;;;6.22;3.50;;;;;;;17.64;65.35;101744.41;5034333;28;20035;-81
2022/10/14 06:59:16;;;;;;;8.57;4.30;;;;;;;17.61;65.22;101731.97;5039260;28;20033;-81
2022/10/14 07:01:42;;;;;;;5.85;3.67;;;;;;;17.64;65.43;101739.13;5033883;28;20466;-81
2022/10/14 07:04:07;;;;;;;6.97;4.13;;;;;;;17.66;65.53;101748.91;5032564;28;20041;-80
2022/10/14 07:06:35;;;;;;;9.50;5.15;;;;;;;17.62;65.38;101728.47;5044005;28;20044;-81
2022/10/14 07:09:01;;;;;;;7.53;4.60;;;;;;;17.54;66.16;101743.09;5039497;28;20040;-81
2022/10/14 07:11:27;;;;;;;7.78;4.45;;;;;;;17.68;65.67;101744.59;5048284;28;20090;-82
2022/10/14 07:13:54;;;;;;;6.28;4.38;;;;;;;17.71;65.39;101749.09;5037740;28;20041;-81
2022/10/14 07:16:22;;;;;;;6.30;3.97;;;;;;;17.66;65.64;101746.25;5046264;28;20082;-81
2022/10/14 07:18:48;;;;;;;6.63;3.92;;;;;;;17.61;65.70;101742.53;5044615;28;20033;-82
2022/10/14 07:21:14;;;;;;;7.10;4.47;;;;;;;17.68;65.36;101738.41;5038835;28;20051;-81
2022/10/14 07:23:40;;;;;;;7.15;4.60;;;;;;;17.59;66.13;101736.28;5046537;28;20029;-81
2022/10/14 07:26:05;;;;;;;8.88;4.50;;;;;;;17.59;66.04;101741.56;5043807;28;20029;-81
2022/10/14 07:28:32;;;;;;;6.30;4.28;;;;;;;17.55;66.74;101750.22;5030859;28;20037;-81
2022/10/14 07:31:03;;;;;;;6.65;4.55;;;;;;;17.62;65.78;101741.69;5035126;28;20542;-81
2022/10/14 07:33:29;;;;;;;6.85;4.15;;;;;;;17.58;65.99;101729.19;5034460;28;20113;-81
2022/10/14 07:36:04;;;;;;;6.90;4.32;;;;;;;17.59;66.05;101730.09;5044003;28;20103;-82
2022/10/14 07:38:32;;;;;;;6.43;4.10;;;;;;;17.51;66.17;101721.88;5036750;28;20044;-82
2022/10/14 07:41:06;;;;;;;9.07;4.50;;;;;;;17.59;66.15;101725.72;5041601;28;20090;-82
2022/10/14 07:43:33;;;;;;;6.32;4.38;;;;;;;17.36;66.32;101695.75;5046253;28;20086;-82
2022/10/14 07:46:01;;;;;;;6.50;4.25;;;;;;;17.55;65.80;101709.72;5046780;28;20508;-82
2022/10/14 07:48:28;;;;;;;8.27;5.00;;;;;;;17.25;67.10;101670.63;5053916;28;20414;-82
2022/10/14 07:50:55;;;;;;;6.53;4.40;;;;;;;17.51;66.08;101708.66;5027013;28;20052;-82
2022/10/14 07:53:22;;;;;;;7.95;4.45;;;;;;;17.24;65.95;101660.91;5033099;28;20034;-82
2022/10/14 07:55:51;;;;;;;8.70;4.38;;;;;;;17.18;66.32;101660.66;5055198;28;20045;-82
2022/10/14 07:58:26;;;;;;;6.90;4.22;;;;;;;17.27;66.70;101682.13;5039578;28;20014;-82
2022/10/14 08:00:55;;;;;;;7.68;4.20;;;;;;;17.13;66.92;101681.59;5031537;28;20029;-82
2022/10/14 08:03:22;;;;;;;7.22;4.63;;;;;;;17.27;67.13;101709.47;5029739;28;20044;-82
2022/10/14 08:06:02;;;;;;;7.57;4.20;;;;;;;17.26;67.18;101715.56;5044055;28;20116;-82
2022/10/14 08:08:28;;;;;;;6.15;4.50;;;;;;;17.39;66.85;101727.53;5043760;28;20029;-82
2022/10/14 08:11:04;;;;;;;9.02;4.50;;;;;;;17.30;67.01;101714.84;5031547;28;20029;-82
2022/10/14 08:13:30;;;;;;;6.57;4.38;;;;;;;17.34;67.40;101726.47;5035527;28;20564;-82
2022/10/14 08:15:56;;;;;;;7.18;4.55;;;;;;;17.32;66.99;101725.50;5039290;28;20029;-82
2022/10/14 08:18:23;;;;;;;8.02;4.38;;;;;;;17.27;67.14;101716.47;5049122;28;20422;-80
2022/10/14 08:20:52;;;;;;;8.23;4.30;;;;;;;17.39;66.97;101727.53;5050719;28;20178;-81
2022/10/14 08:23:20;;;;;;;9.00;4.93;;;;;;;17.33;67.01;101724.63;5037147;28;20048;-81
2022/10/14 08:25:47;;;;;;;8.82;4.85;;;;;;;17.33;66.54;101719.34;5052163;28;20025;-81
2022/10/14 08:28:13;;;;;;;7.43;4.30;;;;;;;17.34;67.01;101726.47;5042756;28;20086;-81
2022/10/14 08:30:39;;;;;;;7.45;4.68;;;;;;;17.21;66.95;101697.75;5051880;28;20445;-81
2022/10/14 08:33:05;;;;;;;9.27;4.32;;;;;;;17.40;66.64;101720.50;5047041;28;20468;-81
2022/10/14 08:35:31;;;;;;;6.45;4.22;;;;;;;17.41;66.91;101725.84;5035246;28;20040;-81
2022/10/14 08:37:59;;;;;;;6.30;4.05;;;;;;;17.39;66.66;101722.25;5045918;28;20041;-81
2022/10/14 08:40:27;;;;;;;5.93;3.83;;;;;;;17.45;66.69;101738.34;5043439;28;20043;-81
2022/10/14 08:43:52;;;;;;;8.98;4.60;;;;;;;17.42;66.73;101735.59;5043954;28;20763;-82
2022/10/14 08:46:24;;;;;;;7.15;4.55;;;;;;;17.37;66.85;101739.78;4969866;28;20038;-82
2022/10/14 08:48:58;;;;;;;6.45;4.43;;;;;;;17.44;66.78;101739.22;4966550;28;20034;-82
2022/10/14 08:51:26;;;;;;;8.48;4.70;;;;;;;17.42;66.98;101734.69;5015747;28;20105;-83
2022/10/14 08:53:55;;;;;;;9.70;4.72;;;;;;;17.40;67.02;101725.78;5042011;28;20055;-82
2022/10/14 08:56:22;;;;;;;8.75;4.40;;;;;;;17.40;66.99;101728.44;5039562;28;20478;-82
2022/10/14 08:58:49;;;;;;;8.15;4.28;;;;;;;17.36;67.70;101732.72;5051661;28;20095;-82
2022/10/14 09:01:26;;;;;;;9.95;4.80;;;;;;;17.31;67.17;101734.22;5040938;28;20453;-82
2022/10/14 09:03:56;;;;;;;6.72;4.50;;;;;;;17.30;67.39;101735.09;5045703;28;20017;-81
2022/10/14 09:06:25;;;;;;;6.90;4.28;;;;;;;17.33;67.11;101734.31;5045665;28;20489;-82
2022/10/14 09:08:55;;;;;;;8.40;4.82;;;;;;;17.35;67.09;101740.56;5050309;28;20033;-81
2022/10/14 09:11:23;;;;;;;6.95;4.38;;;;;;;17.49;66.59;101744.69;5050605;28;20048;-82
2022/10/14 09:13:55;;;;;;;8.10;4.40;;;;;;;17.44;66.91;101740.94;5047439;28;20033;-82
2022/10/14 09:16:24;;;;;;;11.55;5.10;;;;;;;17.40;67.10;101752.19;5048175;28;20032;-83
2022/10/14 09:18:53;;;;;;;9.65;4.72;;;;;;;17.49;66.87;101742.03;5062442;28;20060;-82
2022/10/14 09:21:31;;;;;;;6.88;4.35;;;;;;;17.47;66.79;101752.53;5059786;28;20028;-83
2022/10/14 09:24:21;;;;;;;6.30;4.50;;;;;;;17.56;66.54;101740.53;5060559;28;20036;-82
2022/10/14 09:26:48;;;;;;;7.93;4.65;;;;;;;17.49;66.71;101736.75;5049077;28;20032;-81
2022/10/14 09:29:33;;;;;;;7.97;4.40;;;;;;;17.43;66.39;101725.94;5064975;28;20047;-81
2022/10/14 09:32:05;;;;;;;8.45;4.38;;;;;;;17.49;66.64;101742.03;5062867;28;20024;-81
2022/10/14 09:34:44;;;;;;;9.30;5.20;;;;;;;17.13;66.81;101702.69;5036643;28;20034;-82
2022/10/14 09:37:19;;;;;;;8.48;4.40;;;;;;;17.44;66.79;101738.28;5042993;28;20029;-80
2022/10/14 09:39:44;;;;;;;7.97;4.65;;;;;;;17.37;66.75;101749.44;5038317;28;20107;-80
2022/10/14 09:42:25;;;;;;;7.35;4.45;;;;;;;17.40;66.72;101750.47;5043280;28;20578;-81
2022/10/14 09:45:07;;;;;;;7.28;4.95;;;;;;;17.35;66.91;101741.44;5038775;28;20525;-82
2022/10/14 09:47:38;;;;;;;6.35;4.28;;;;;;;17.42;66.67;101737.31;5041903;28;20029;-81
2022/10/14 09:50:07;;;;;;;8.30;4.55;;;;;;;17.49;66.49;101739.41;5035754;28;20029;-81
2022/10/14 09:52:33;;;;;;;9.18;5.07;;;;;;;17.44;66.79;101748.84;5047213;28;20027;-82
2022/10/14 09:55:00;;;;;;;8.27;4.57;;;;;;;17.37;67.10;101739.78;5037027;28;20033;-81
2022/10/14 09:57:26;;;;;;;7.57;4.65;;;;;;;17.27;67.90;101727.94;5041175;28;20406;-82
2022/10/14 09:59:58;;;;;;;7.85;4.35;;;;;;;17.28;67.54;101735.00;5041128;28;20025;-82
2022/10/14 10:02:39;;;;;;;8.13;4.53;;;;;;;17.32;67.36;101741.34;5037955;28;20052;-81
2022/10/14 10:05:22;;;;;;;13.73;4.93;;;;;;;17.32;67.10;101732.53;5036904;28;20021;-82
2022/10/14 10:08:00;;;;;;;7.03;4.15;;;;;;;17.44;66.95;101738.28;5045796;28;20039;-81
2022/10/14 10:10:29;;;;;;;12.18;4.60;;;;;;;17.31;67.30;101728.94;5046290;28;20036;-82
2022/10/14 10:12:56;;;;;;;6.72;4.10;;;;;;;17.29;67.50;101733.25;5044444;28;20044;-82
2022/10/14 10:15:22;;;;;;;8.88;4.20;;;;;;;17.29;67.34;101722.69;5042299;28;20056;-82
2022/10/14 10:17:48;;;;;;;10.30;4.70;;;;;;;17.29;66.91;101702.50;5048087;28;20052;-81
2022/10/14 10:20:14;;;;;;;;;;;;;;;17.38;67.26;101724.84;5047829;28;20025;-82
2022/10/14 10:22:40;;;;;;;6.40;4.35;;;;;;;17.43;67.13;101729.47;5031195;28;19919;-82
2022/10/14 10:25:09;;;;;;;8.70;4.80;;;;;;;17.38;67.47;101736.31;5044217;28;20107;-83
2022/10/14 10:27:44;;;;;;;7.55;4.50;;;;;;;17.36;67.49;101726.53;5050000;28;20055;-81
2022/10/14 10:30:29;;;;;;;7.38;4.18;;;;;;;17.43;67.08;101734.75;5050648;28;20409;-82
2022/10/14 10:32:58;;;;;;;8.60;4.45;;;;;;;17.39;67.08;101724.91;5048370;28;20056;-82
2022/10/14 10:36:19;;;;;;;10.45;4.82;;;;;;;17.23;67.22;101709.25;5032784;28;20029;-82
2022/10/14 10:39:43;;;;;;;15.45;6.32;;;;;;;17.35;67.46;101720.31;5030934;28;20095;-82
2022/10/14 10:42:15;;;;;;;10.27;6.10;;;;;;;17.37;67.18;101720.41;4963115;28;20043;-82
2022/10/14 10:45:05;;;;;;;13.68;7.68;;;;;;;17.44;67.00;101722.44;5046957;28;20069;-82
2022/10/14 10:47:53;;;;;;;10.35;5.47;;;;;;;17.43;67.14;101713.63;5031648;28;20076;-80
2022/10/14 10:50:39;;;;;;;11.07;5.38;;;;;;;17.28;67.56;101713.00;5047886;28;20056;-82
2022/10/14 10:53:28;;;;;;;14.27;5.72;;;;;;;17.35;67.79;101722.06;5034087;28;20471;-82
2022/10/14 10:55:54;;;;;;;12.18;5.80;;;;;;;17.30;67.96;101716.59;5041694;28;20040;-81
2022/10/14 10:58:34;;;;;;;9.63;5.40;;;;;;;17.30;67.68;101708.69;5036874;28;20450;-82
2022/10/14 11:01:44;;;;;;;9.30;5.20;;;;;;;17.40;67.38;101707.31;5030463;28;20100;-82
2022/10/14 11:04:33;;;;;;;10.77;6.03;;;;;;;17.38;67.45;101715.19;4997179;28;20060;-82
2022/10/14 11:13:21;;;;;;;10.57;4.90;;;;;;;17.44;67.19;101717.16;5034072;28;20513;-83
2022/10/14 11:15:56;;;;;;;11.20;4.70;;;;;;;17.44;67.28;101712.81;5041831;28;20024;-82
2022/10/14 11:18:51;;;;;;;10.80;4.80;;;;;;;17.38;67.39;101709.91;5032969;28;20391;-83
2022/10/14 11:21:42;;;;;;;9.18;4.85;;;;;;;17.44;67.05;101715.44;5050221;28;20100;-83
2022/10/14 11:24:29;;;;;;;8.65;4.63;;;;;;;17.43;66.98;101700.41;5051334;28;20461;-83
2022/10/14 11:27:08;;;;;;;8.55;4.78;;;;;;;17.47;67.08;101715.56;5049631;28;20036;-82
2022/10/14 11:29:40;;;;;;;8.00;4.40;;;;;;;17.43;67.23;101708.34;5051352;28;20059;-83
2022/10/14 11:32:23;;;;;;;9.70;3.97;;;;;;;17.47;67.18;101697.06;5050843;28;20021;-83
2022/10/14 11:35:16;;;;;;;8.40;3.92;;;;;;;17.41;67.21;101683.63;5042169;28;20043;-82
2022/10/14 11:38:04;;;;;;;8.02;4.10;;;;;;;17.50;66.85;101697.22;5044416;28;20044;-83
2022/10/14 11:40:54;;;;;;;7.70;4.10;;;;;;;17.48;66.73;101704.16;5031136;28;20495;-82
2022/10/14 11:43:56;;;;;;;7.90;3.90;;;;;;;17.58;66.38;101699.25;5036536;28;20061;-81
2022/10/14 11:46:26;;;;;;;8.85;4.05;;;;;;;17.38;66.85;101695.81;5047799;28;20040;-83
2022/10/14 11:49:07;;;;;;;10.27;4.03;;;;;;;17.27;66.70;101648.75;5034055;28;20057;-85